createdAt,value
2022-11-06T00:01:54.461Z,11.30
2022-11-06T00:06:15.827Z,11.20
2022-11-06T00:10:19.313Z,11.20
2022-11-06T00:14:22.397Z,11.20
2022-11-06T00:18:27.029Z,11.10
2022-11-06T00:22:33.940Z,11.00
2022-11-06T00:26:36.833Z,11.00
2022-11-06T00:30:39.909Z,10.80
2022-11-06T00:34:42.808Z,10.80
2022-11-06T00:38:46.341Z,10.70
2022-11-06T00:42:54.335Z,10.70
2022-11-06T00:46:57.280Z,10.70
2022-11-06T00:51:05.184Z,10.60
2022-11-06T00:55:08.401Z,10.70
2022-11-06T00:59:14.377Z,10.70
2022-11-06T01:03:17.282Z,10.80
2022-11-06T01:07:20.160Z,10.80
2022-11-06T01:11:28.556Z,10.70
2022-11-06T01:15:37.290Z,10.80
2022-11-06T01:19:40.391Z,10.70
2022-11-06T01:23:44.312Z,10.60
2022-11-06T01:27:47.091Z,10.50
2022-11-06T01:31:50.601Z,10.50
2022-11-06T01:35:53.380Z,10.50
2022-11-06T01:39:56.224Z,10.50
2022-11-06T01:44:09.399Z,10.60
2022-11-06T01:48:13.982Z,10.70
2022-11-06T01:52:17.753Z,10.80
2022-11-06T01:56:21.455Z,11.00
2022-11-06T02:00:24.897Z,11.10
2022-11-06T02:04:32.897Z,11.30
2022-11-06T02:08:35.966Z,11.50
2022-11-06T02:12:59.044Z,11.60
2022-11-06T02:17:35.293Z,11.80
2022-11-06T02:22:16.333Z,11.90
2022-11-06T02:26:47.884Z,12.00
2022-11-06T02:30:53.563Z,12.00
2022-11-06T02:34:58.845Z,11.80
2022-11-06T02:39:07.876Z,11.50
2022-11-06T02:43:11.190Z,11.30
2022-11-06T02:47:16.512Z,11.10
2022-11-06T02:51:22.560Z,11.00
2022-11-06T02:55:48.703Z,10.90
2022-11-06T03:00:02.768Z,10.70
2022-11-06T03:04:14.704Z,10.50
2022-11-06T03:08:22.385Z,10.40
2022-11-06T03:12:50.036Z,10.30
2022-11-06T03:17:17.739Z,10.40
2022-11-06T03:21:27.276Z,10.60
2022-11-06T03:25:46.701Z,10.70
2022-11-06T03:30:01.305Z,10.80
2022-11-06T03:34:12.497Z,10.90
2022-11-06T03:38:29.767Z,10.90
2022-11-06T03:42:33.134Z,11.10
2022-11-06T03:46:40.824Z,11.10
2022-11-06T03:50:50.616Z,11.30
2022-11-06T03:55:05.278Z,11.50
2022-11-06T03:59:09.911Z,11.70
2022-11-06T04:03:30.240Z,11.90
2022-11-06T04:07:39.319Z,12.00
2022-11-06T04:12:03.061Z,12.10
2022-11-06T04:16:08.647Z,12.20
2022-11-06T04:20:36.397Z,12.20
2022-11-06T04:25:18.257Z,12.40
2022-11-06T04:29:31.167Z,12.40
2022-11-06T04:33:58.415Z,12.40
2022-11-06T04:38:14.809Z,12.50
2022-11-06T04:42:37.448Z,12.50
2022-11-06T04:46:49.102Z,12.50
2022-11-06T04:50:56.944Z,12.60
2022-11-06T04:55:00.027Z,12.60
2022-11-06T04:59:07.034Z,12.60
2022-11-06T05:03:09.898Z,12.60
2022-11-06T05:07:14.693Z,12.60
2022-11-06T05:11:17.823Z,12.60
2022-11-06T05:15:20.642Z,12.60
2022-11-06T05:19:23.660Z,12.50
2022-11-06T05:23:26.444Z,12.50
2022-11-06T05:27:29.286Z,12.50
2022-11-06T05:31:32.243Z,12.50
2022-11-06T05:35:35.087Z,12.50
2022-11-06T05:39:41.840Z,12.50
2022-11-06T05:43:45.057Z,12.40
2022-11-06T05:47:47.911Z,12.40
2022-11-06T05:51:54.342Z,12.40
2022-11-06T05:55:57.214Z,12.40
2022-11-06T06:00:00.160Z,12.30
2022-11-06T06:04:03.226Z,12.30
2022-11-06T06:08:06.550Z,12.30
2022-11-06T06:12:13.258Z,12.40
2022-11-06T06:16:16.179Z,12.40
2022-11-06T06:20:19.031Z,12.50
2022-11-06T06:24:21.993Z,12.50
2022-11-06T06:28:25.007Z,12.50
2022-11-06T06:32:27.991Z,12.60
2022-11-06T06:36:30.868Z,12.60
2022-11-06T06:40:33.723Z,12.70
2022-11-06T06:44:36.566Z,12.70
2022-11-06T06:48:39.377Z,12.70
2022-11-06T06:52:42.218Z,12.80
2022-11-06T06:56:45.063Z,12.70
2022-11-06T07:00:48.043Z,12.80
2022-11-06T07:04:51.762Z,12.80
2022-11-06T07:08:57.737Z,12.90
2022-11-06T07:13:05.563Z,13.00
2022-11-06T07:17:08.419Z,13.10
2022-11-06T07:21:12.855Z,13.30
2022-11-06T07:25:15.712Z,13.40
2022-11-06T07:29:19.414Z,13.50
2022-11-06T07:33:22.261Z,13.60
2022-11-06T07:37:25.110Z,13.80
2022-11-06T07:41:28.111Z,14.00
2022-11-06T07:45:30.997Z,14.00
2022-11-06T07:49:34.029Z,14.20
2022-11-06T07:53:37.470Z,14.30
2022-11-06T07:57:40.520Z,14.40
2022-11-06T08:01:43.430Z,14.50
2022-11-06T08:05:46.848Z,14.70
2022-11-06T08:09:49.702Z,14.80
2022-11-06T08:13:52.523Z,15.00
2022-11-06T08:17:55.318Z,15.20
2022-11-06T08:21:58.357Z,15.30
2022-11-06T08:26:04.423Z,15.40
2022-11-06T08:30:07.889Z,15.50
2022-11-06T08:34:10.854Z,15.60
2022-11-06T08:38:14.049Z,15.80
2022-11-06T08:42:17.135Z,15.90
2022-11-06T08:46:20.494Z,15.90
2022-11-06T08:50:23.381Z,16.00
2022-11-06T08:54:26.426Z,16.10
2022-11-06T08:58:29.379Z,16.20
2022-11-06T09:02:33.671Z,16.40
2022-11-06T09:06:36.907Z,16.50
2022-11-06T09:10:41.332Z,16.80
2022-11-06T09:14:44.253Z,16.90
2022-11-06T09:18:47.139Z,17.00
2022-11-06T09:22:50.275Z,17.00
2022-11-06T09:26:53.119Z,17.10
2022-11-06T09:30:57.459Z,17.30
2022-11-06T09:35:00.560Z,17.30
2022-11-06T09:39:03.860Z,17.30
2022-11-06T09:48:15.200Z,17.60
2022-11-06T09:52:30.109Z,17.80
2022-11-06T09:56:38.965Z,18.00
2022-11-06T10:00:42.757Z,18.00
2022-11-06T10:04:51.396Z,18.00
2022-11-06T10:08:58.593Z,18.10
2022-11-06T10:13:14.804Z,18.40
2022-11-06T10:18:09.248Z,18.30
2022-11-06T10:22:25.837Z,18.30
2022-11-06T10:26:38.296Z,18.40
2022-11-06T10:30:56.144Z,18.60
2022-11-06T10:35:17.867Z,18.70
2022-11-06T10:39:25.004Z,18.80
2022-11-06T10:43:35.856Z,18.90
2022-11-06T10:48:06.445Z,19.00
2022-11-06T10:52:24.542Z,18.90
2022-11-06T10:56:54.302Z,18.90
2022-11-06T11:01:04.708Z,18.90
2022-11-06T11:05:17.179Z,19.00
2022-11-06T11:09:29.787Z,19.10
2022-11-06T11:13:33.710Z,19.30
2022-11-06T11:17:36.879Z,19.30
2022-11-06T11:21:51.790Z,19.50
2022-11-06T11:26:12.507Z,19.60
2022-11-06T11:30:26.766Z,19.60
2022-11-06T11:34:49.196Z,19.70
2022-11-06T11:38:54.578Z,20.00
2022-11-06T11:43:22.048Z,19.80
2022-11-06T11:47:25.103Z,19.50
2022-11-06T11:51:47.901Z,19.50
2022-11-06T11:55:53.455Z,19.50
2022-11-06T12:00:06.407Z,19.60
2022-11-06T12:04:24.468Z,19.70
2022-11-06T12:08:27.386Z,19.50
2022-11-06T12:12:34.549Z,19.50
2022-11-06T12:16:37.924Z,19.50
2022-11-06T12:20:53.122Z,19.60
2022-11-06T12:25:09.055Z,19.50
2022-11-06T12:29:23.265Z,19.40
2022-11-06T12:34:03.933Z,19.10
2022-11-06T12:38:24.618Z,19.00
2022-11-06T12:42:32.309Z,19.00
2022-11-06T12:46:52.992Z,19.00
2022-11-06T12:51:26.828Z,19.00
2022-11-06T12:55:51.585Z,19.00
2022-11-06T12:59:57.496Z,19.00
2022-11-06T13:04:21.960Z,18.70
2022-11-06T13:08:51.843Z,18.70
2022-11-06T13:12:57.562Z,18.60
2022-11-06T13:17:21.814Z,18.60
2022-11-06T13:21:36.342Z,18.60
2022-11-06T13:26:22.293Z,18.50
2022-11-06T13:30:25.357Z,18.50
2022-11-06T13:34:35.999Z,18.50
2022-11-06T13:38:47.741Z,18.50
2022-11-06T13:43:23.302Z,18.50
2022-11-06T13:47:33.357Z,18.50
2022-11-06T13:51:42.683Z,18.40
2022-11-06T13:56:07.384Z,18.40
2022-11-06T14:00:42.361Z,18.40
2022-11-06T14:05:41.387Z,18.30
2022-11-06T14:09:46.448Z,18.30
2022-11-06T14:14:31.914Z,18.30
2022-11-06T14:18:35.430Z,18.30
2022-11-06T14:22:38.691Z,18.30
2022-11-06T14:26:46.856Z,18.30
2022-11-06T14:35:48.776Z,18.20
2022-11-06T14:39:51.894Z,18.00
2022-11-06T14:43:57.064Z,18.00
2022-11-06T14:48:03.594Z,18.00
2022-11-06T14:52:13.601Z,18.00
2022-11-06T14:56:27.194Z,18.00
2022-11-06T15:00:35.901Z,18.00
2022-11-06T15:04:46.064Z,18.00
2022-11-06T15:08:49.080Z,17.80
2022-11-06T15:13:22.448Z,17.70
2022-11-06T15:17:27.585Z,17.50
2022-11-06T15:21:36.070Z,17.30
2022-11-06T15:25:52.281Z,17.10
2022-11-06T15:29:59.821Z,17.00
2022-11-06T15:34:16.135Z,16.80
2022-11-06T15:38:25.256Z,16.70
2022-11-06T15:42:37.709Z,16.70
2022-11-06T15:46:53.980Z,16.60
2022-11-06T15:50:57.526Z,16.50
2022-11-06T15:55:00.483Z,16.40
2022-11-06T15:59:15.104Z,16.20
2022-11-06T16:03:23.686Z,16.00
2022-11-06T16:07:27.739Z,15.90
2022-11-06T16:11:31.762Z,15.70
2022-11-06T16:15:43.707Z,15.50
2022-11-06T16:19:48.886Z,15.40
2022-11-06T16:23:59.490Z,15.20
2022-11-06T16:28:02.392Z,15.20
2022-11-06T16:32:09.442Z,15.10
2022-11-06T16:36:13.755Z,15.10
2022-11-06T16:40:44.849Z,15.00
2022-11-06T16:44:59.331Z,14.90
2022-11-06T16:49:30.972Z,14.80
2022-11-06T16:54:03.856Z,14.50
2022-11-06T16:58:17.468Z,14.20
2022-11-06T17:02:24.152Z,14.00
2022-11-06T17:06:33.133Z,13.70
2022-11-06T17:10:43.507Z,13.50
2022-11-06T17:14:51.350Z,13.30
2022-11-06T17:18:55.081Z,13.10
2022-11-06T17:22:57.936Z,13.00
2022-11-06T17:27:00.804Z,12.90
2022-11-06T17:31:03.831Z,12.70
2022-11-06T17:35:08.781Z,12.50
2022-11-06T17:39:11.611Z,12.40
2022-11-06T17:43:14.778Z,12.20
2022-11-06T17:47:17.805Z,12.20
2022-11-06T17:51:39.439Z,12.30
2022-11-06T17:55:42.324Z,12.20
2022-11-06T17:59:45.151Z,12.20
2022-11-06T18:03:48.325Z,12.10
2022-11-06T18:07:51.276Z,12.20
2022-11-06T18:11:55.944Z,12.20
2022-11-06T18:15:59.497Z,12.00
2022-11-06T18:20:02.615Z,11.90
2022-11-06T18:24:06.349Z,11.80
2022-11-06T18:28:10.141Z,11.80
2022-11-06T18:32:13.019Z,11.80
2022-11-06T18:36:16.477Z,11.70
2022-11-06T18:40:19.426Z,11.60
2022-11-06T18:44:22.349Z,11.50
2022-11-06T18:48:25.774Z,11.50
2022-11-06T18:52:55.722Z,11.40
2022-11-06T18:56:51.792Z,11.40
2022-11-06T19:01:00.526Z,11.20
2022-11-06T19:05:04.975Z,11.10
2022-11-06T19:09:08.629Z,11.00
2022-11-06T19:13:12.219Z,11.00
2022-11-06T19:17:17.093Z,10.90
2022-11-06T19:21:20.147Z,10.80
2022-11-06T19:25:23.681Z,10.60
2022-11-06T19:29:26.729Z,10.50
2022-11-06T19:33:29.893Z,10.50
2022-11-06T19:37:32.690Z,10.40
2022-11-06T19:41:35.481Z,10.30
2022-11-06T19:45:40.138Z,10.20
2022-11-06T19:49:45.932Z,10.20
2022-11-06T19:53:53.330Z,10.10
2022-11-06T19:57:58.533Z,10.10
2022-11-06T20:02:02.992Z,10.00
2022-11-06T20:06:08.057Z,9.90
2022-11-06T20:10:12.148Z,9.90
2022-11-06T20:14:18.599Z,9.80
2022-11-06T20:18:37.407Z,9.80
2022-11-06T20:22:40.493Z,9.70
2022-11-06T20:26:47.585Z,9.60
2022-11-06T20:31:03.857Z,9.50
2022-11-06T20:35:07.518Z,9.40
2022-11-06T20:39:10.410Z,9.40
2022-11-06T20:43:13.623Z,9.40
2022-11-06T20:47:16.835Z,9.50
2022-11-06T20:51:26.032Z,9.40
2022-11-06T20:55:29.266Z,9.50
2022-11-06T20:59:32.164Z,9.30
2022-11-06T21:03:35.153Z,9.30
2022-11-06T21:07:38.021Z,9.20
2022-11-06T21:11:40.844Z,9.10
2022-11-06T21:15:43.652Z,9.10
2022-11-06T21:19:46.675Z,9.00
2022-11-06T21:23:50.353Z,9.10
2022-11-06T21:27:53.116Z,9.10
2022-11-06T21:31:56.307Z,9.10
2022-11-06T21:36:16.882Z,9.20
2022-11-06T21:40:20.199Z,9.10
2022-11-06T21:44:23.532Z,9.10
2022-11-06T21:48:45.190Z,9.00
2022-11-06T21:53:07.322Z,8.90
2022-11-06T21:57:10.160Z,8.90
2022-11-06T22:01:14.525Z,8.90
2022-11-06T22:05:18.290Z,8.90
2022-11-06T22:09:25.369Z,9.00
2022-11-06T22:13:29.561Z,9.00
2022-11-06T22:17:32.445Z,8.90
2022-11-06T22:21:37.145Z,8.80
2022-11-06T22:25:40.091Z,8.70
2022-11-06T22:29:42.973Z,8.60
2022-11-06T22:33:52.209Z,8.50
2022-11-06T22:37:56.470Z,8.50
2022-11-06T22:41:59.312Z,8.40
2022-11-06T22:46:04.869Z,8.40
2022-11-06T22:50:08.034Z,8.30
2022-11-06T22:54:11.072Z,8.30
2022-11-06T22:58:14.179Z,8.30
2022-11-06T23:02:17.098Z,8.20
2022-11-06T23:06:19.850Z,8.20
2022-11-06T23:10:32.785Z,8.20
2022-11-06T23:14:35.591Z,8.10
2022-11-06T23:18:39.003Z,8.10
2022-11-06T23:22:42.108Z,8.00
2022-11-06T23:26:45.440Z,8.00
2022-11-06T23:30:48.167Z,8.00
2022-11-06T23:34:51.428Z,7.90
2022-11-06T23:38:54.595Z,7.90
2022-11-06T23:42:57.712Z,7.90
2022-11-06T23:47:01.100Z,7.90
2022-11-06T23:51:03.985Z,7.80
2022-11-06T23:55:07.464Z,7.90
2022-11-06T23:59:10.237Z,7.80
